sensor_id;sensor_type;location;lat;lon;timestamp;pressure;altitude;pressure_sealevel;temperature;humidity
11049;BME280;5577;42.706;23.160;2022-12-29T00:00:48;95045.00;;;4.84;100.00
11049;BME280;5577;42.706;23.160;2022-12-29T00:03:32;95047.97;;;4.96;100.00
11049;BME280;5577;42.706;23.160;2022-12-29T00:06:16;94968.97;;;4.52;100.00
11049;BME280;5577;42.706;23.160;2022-12-29T00:09:00;95014.28;;;4.71;100.00
11049;BME280;5577;42.706;23.160;2022-12-29T00:11:44;95060.31;;;4.95;100.00
11049;BME280;5577;42.706;23.160;2022-12-29T00:14:28;95052.31;;;4.87;100.00
11049;BME280;5577;42.706;23.160;2022-12-29T00:17:31;95058.66;;;4.99;100.00
11049;BME280;5577;42.706;23.160;2022-12-29T00:20:15;95063.06;;;5.04;100.00
11049;BME280;5577;42.706;23.160;2022-12-29T00:23:17;95072.28;;;5.01;100.00
11049;BME280;5577;42.706;23.160;2022-12-29T00:26:20;95076.88;;;5.09;100.00
11049;BME280;5577;42.706;23.160;2022-12-29T00:29:23;95069.66;;;5.01;100.00
11049;BME280;5577;42.706;23.160;2022-12-29T00:32:26;95079.09;;;5.02;100.00
11049;BME280;5577;42.706;23.160;2022-12-29T00:35:33;95075.91;;;4.87;100.00
11049;BME280;5577;42.706;23.160;2022-12-29T00:38:20;95069.06;;;4.72;100.00
11049;BME280;5577;42.706;23.160;2022-12-29T00:41:23;95086.56;;;4.77;100.00
11049;BME280;5577;42.706;23.160;2022-12-29T00:44:26;95080.31;;;4.91;100.00
11049;BME280;5577;42.706;23.160;2022-12-29T00:47:10;95079.94;;;4.98;100.00
11049;BME280;5577;42.706;23.160;2022-12-29T00:49:54;95081.94;;;5.06;100.00
11049;BME280;5577;42.706;23.160;2022-12-29T00:52:38;95078.56;;;5.00;100.00
11049;BME280;5577;42.706;23.160;2022-12-29T00:55:22;95078.91;;;4.99;100.00
11049;BME280;5577;42.706;23.160;2022-12-29T00:58:06;95076.63;;;4.92;100.00
11049;BME280;5577;42.706;23.160;2022-12-29T01:00:50;95073.66;;;4.99;100.00
11049;BME280;5577;42.706;23.160;2022-12-29T01:03:36;95079.38;;;5.01;100.00
11049;BME280;5577;42.706;23.160;2022-12-29T01:06:20;95018.81;;;4.65;100.00
11049;BME280;5577;42.706;23.160;2022-12-29T01:09:04;95086.56;;;5.09;100.00
11049;BME280;5577;42.706;23.160;2022-12-29T01:12:08;95082.97;;;5.05;100.00
11049;BME280;5577;42.706;23.160;2022-12-29T01:14:53;95069.28;;;5.08;100.00
11049;BME280;5577;42.706;23.160;2022-12-29T01:17:36;95073.44;;;5.09;100.00
11049;BME280;5577;42.706;23.160;2022-12-29T01:20:20;95072.13;;;5.11;100.00
11049;BME280;5577;42.706;23.160;2022-12-29T01:23:04;95067.16;;;5.10;100.00
11049;BME280;5577;42.706;23.160;2022-12-29T01:25:48;95059.19;;;5.15;100.00
11049;BME280;5577;42.706;23.160;2022-12-29T01:28:32;95059.19;;;5.15;100.00
11049;BME280;5577;42.706;23.160;2022-12-29T01:31:16;95047.13;;;5.14;100.00
11049;BME280;5577;42.706;23.160;2022-12-29T01:34:01;95053.06;;;5.06;100.00
11049;BME280;5577;42.706;23.160;2022-12-29T01:36:45;95050.22;;;5.02;100.00
11049;BME280;5577;42.706;23.160;2022-12-29T01:39:28;95049.34;;;5.07;100.00
11049;BME280;5577;42.706;23.160;2022-12-29T01:42:18;95042.06;;;5.04;100.00
11049;BME280;5577;42.706;23.160;2022-12-29T01:45:16;95033.41;;;5.03;100.00
11049;BME280;5577;42.706;23.160;2022-12-29T01:48:03;95037.38;;;5.01;100.00
11049;BME280;5577;42.706;23.160;2022-12-29T01:50:51;95026.69;;;4.97;100.00
11049;BME280;5577;42.706;23.160;2022-12-29T01:53:36;95037.00;;;5.07;100.00
11049;BME280;5577;42.706;23.160;2022-12-29T01:56:21;95033.63;;;5.07;100.00
11049;BME280;5577;42.706;23.160;2022-12-29T01:59:10;95031.75;;;5.07;100.00
11049;BME280;5577;42.706;23.160;2022-12-29T02:01:56;95027.47;;;4.98;100.00
11049;BME280;5577;42.706;23.160;2022-12-29T02:04:41;94966.06;;;4.53;100.00
11049;BME280;5577;42.706;23.160;2022-12-29T02:07:29;95023.97;;;4.89;100.00
11049;BME280;5577;42.706;23.160;2022-12-29T02:10:14;95024.66;;;4.94;100.00
11049;BME280;5577;42.706;23.160;2022-12-29T02:12:59;95019.75;;;4.88;100.00
11049;BME280;5577;42.706;23.160;2022-12-29T02:21:51;95022.19;;;4.84;100.00
11049;BME280;5577;42.706;23.160;2022-12-29T02:31:30;95028.03;;;4.95;100.00
11049;BME280;5577;42.706;23.160;2022-12-29T02:37:44;95031.59;;;4.85;100.00
11049;BME280;5577;42.706;23.160;2022-12-29T02:43:33;95022.56;;;4.78;100.00
11049;BME280;5577;42.706;23.160;2022-12-29T02:49:30;95022.63;;;4.73;100.00
11049;BME280;5577;42.706;23.160;2022-12-29T02:52:22;95027.22;;;4.81;100.00
11049;BME280;5577;42.706;23.160;2022-12-29T02:55:11;94970.72;;;4.56;100.00
11049;BME280;5577;42.706;23.160;2022-12-29T03:04:35;95010.63;;;4.85;100.00
11049;BME280;5577;42.706;23.160;2022-12-29T03:07:32;94995.84;;;4.76;100.00
11049;BME280;5577;42.706;23.160;2022-12-29T03:10:32;94992.97;;;4.59;100.00
11049;BME280;5577;42.706;23.160;2022-12-29T03:16:45;94999.56;;;4.56;100.00
11049;BME280;5577;42.706;23.160;2022-12-29T03:19:35;95001.78;;;4.49;100.00
11049;BME280;5577;42.706;23.160;2022-12-29T03:22:23;94955.75;;;4.25;100.00
11049;BME280;5577;42.706;23.160;2022-12-29T03:25:16;95002.56;;;4.50;100.00
11049;BME280;5577;42.706;23.160;2022-12-29T03:28:08;95003.19;;;4.42;100.00
11049;BME280;5577;42.706;23.160;2022-12-29T03:30:55;95012.28;;;4.31;100.00
11049;BME280;5577;42.706;23.160;2022-12-29T03:33:41;95003.09;;;4.15;100.00
11049;BME280;5577;42.706;23.160;2022-12-29T03:36:53;94991.88;;;4.09;100.00
11049;BME280;5577;42.706;23.160;2022-12-29T03:39:39;95011.81;;;4.10;100.00
11049;BME280;5577;42.706;23.160;2022-12-29T03:42:25;95009.38;;;3.95;100.00
11049;BME280;5577;42.706;23.160;2022-12-29T03:45:11;95020.63;;;3.77;100.00
11049;BME280;5577;42.706;23.160;2022-12-29T03:47:55;95014.78;;;3.62;100.00
11049;BME280;5577;42.706;23.160;2022-12-29T03:50:38;95024.78;;;3.60;100.00
11049;BME280;5577;42.706;23.160;2022-12-29T03:53:23;95036.88;;;3.56;100.00
11049;BME280;5577;42.706;23.160;2022-12-29T03:56:07;95029.13;;;3.46;100.00
11049;BME280;5577;42.706;23.160;2022-12-29T03:58:51;95026.56;;;3.41;100.00
11049;BME280;5577;42.706;23.160;2022-12-29T04:01:34;95029.97;;;3.41;100.00
11049;BME280;5577;42.706;23.160;2022-12-29T04:04:18;95028.47;;;3.35;100.00
11049;BME280;5577;42.706;23.160;2022-12-29T04:07:02;95032.38;;;3.38;100.00
11049;BME280;5577;42.706;23.160;2022-12-29T04:09:46;95032.66;;;3.36;100.00
11049;BME280;5577;42.706;23.160;2022-12-29T04:12:30;95034.56;;;3.31;100.00
11049;BME280;5577;42.706;23.160;2022-12-29T04:15:14;95034.09;;;3.24;100.00
11049;BME280;5577;42.706;23.160;2022-12-29T04:17:58;95033.94;;;3.15;100.00
11049;BME280;5577;42.706;23.160;2022-12-29T04:20:44;95035.03;;;3.09;100.00
11049;BME280;5577;42.706;23.160;2022-12-29T04:23:43;95032.34;;;3.14;100.00
11049;BME280;5577;42.706;23.160;2022-12-29T04:26:27;94957.00;;;2.64;100.00
11049;BME280;5577;42.706;23.160;2022-12-29T04:29:11;95031.69;;;3.03;100.00
11049;BME280;5577;42.706;23.160;2022-12-29T04:31:55;95029.88;;;2.99;100.00
11049;BME280;5577;42.706;23.160;2022-12-29T04:34:39;95026.63;;;2.83;100.00
11049;BME280;5577;42.706;23.160;2022-12-29T04:37:23;95039.25;;;2.76;100.00
11049;BME280;5577;42.706;23.160;2022-12-29T04:40:07;95040.16;;;2.90;100.00
11049;BME280;5577;42.706;23.160;2022-12-29T04:42:51;95050.03;;;2.98;100.00
11049;BME280;5577;42.706;23.160;2022-12-29T04:45:36;95049.44;;;3.07;100.00
11049;BME280;5577;42.706;23.160;2022-12-29T04:48:20;95053.41;;;3.04;100.00
11049;BME280;5577;42.706;23.160;2022-12-29T04:51:04;95051.50;;;3.10;100.00
11049;BME280;5577;42.706;23.160;2022-12-29T04:53:49;95063.44;;;3.21;100.00
11049;BME280;5577;42.706;23.160;2022-12-29T04:56:33;95063.44;;;3.21;100.00
11049;BME280;5577;42.706;23.160;2022-12-29T04:59:16;95065.69;;;3.32;100.00
11049;BME280;5577;42.706;23.160;2022-12-29T05:02:00;95060.47;;;3.27;100.00
11049;BME280;5577;42.706;23.160;2022-12-29T05:04:45;95067.25;;;3.28;100.00
11049;BME280;5577;42.706;23.160;2022-12-29T05:07:29;95061.44;;;3.36;100.00
11049;BME280;5577;42.706;23.160;2022-12-29T05:10:14;95055.88;;;3.43;100.00
11049;BME280;5577;42.706;23.160;2022-12-29T05:12:58;95066.84;;;3.45;100.00
11049;BME280;5577;42.706;23.160;2022-12-29T05:15:50;95084.09;;;3.46;100.00
11049;BME280;5577;42.706;23.160;2022-12-29T05:18:34;95076.19;;;3.51;100.00
11049;BME280;5577;42.706;23.160;2022-12-29T05:21:18;95069.84;;;3.57;100.00
11049;BME280;5577;42.706;23.160;2022-12-29T05:24:02;95075.88;;;3.57;100.00
11049;BME280;5577;42.706;23.160;2022-12-29T05:26:47;95078.41;;;3.39;100.00
11049;BME280;5577;42.706;23.160;2022-12-29T05:29:31;95072.53;;;3.52;100.00
11049;BME280;5577;42.706;23.160;2022-12-29T05:32:14;95075.00;;;3.62;100.00
11049;BME280;5577;42.706;23.160;2022-12-29T05:34:58;95077.88;;;3.65;100.00
11049;BME280;5577;42.706;23.160;2022-12-29T05:37:42;95066.44;;;3.56;100.00
11049;BME280;5577;42.706;23.160;2022-12-29T05:40:26;95079.34;;;3.48;100.00
11049;BME280;5577;42.706;23.160;2022-12-29T05:43:10;95075.06;;;3.57;100.00
11049;BME280;5577;42.706;23.160;2022-12-29T05:45:54;95076.53;;;3.68;100.00
11049;BME280;5577;42.706;23.160;2022-12-29T05:48:39;95078.81;;;3.74;100.00
11049;BME280;5577;42.706;23.160;2022-12-29T05:55:04;95078.13;;;3.87;100.00
11049;BME280;5577;42.706;23.160;2022-12-29T05:57:48;95074.66;;;3.92;100.00
11049;BME280;5577;42.706;23.160;2022-12-29T06:00:32;95079.13;;;3.91;100.00
11049;BME280;5577;42.706;23.160;2022-12-29T06:03:15;95085.50;;;3.85;100.00
11049;BME280;5577;42.706;23.160;2022-12-29T06:06:00;95085.34;;;3.77;100.00
11049;BME280;5577;42.706;23.160;2022-12-29T06:08:43;95089.00;;;3.76;100.00
11049;BME280;5577;42.706;23.160;2022-12-29T06:11:27;95074.41;;;3.70;100.00
11049;BME280;5577;42.706;23.160;2022-12-29T06:14:11;95087.69;;;3.78;100.00
11049;BME280;5577;42.706;23.160;2022-12-29T06:16:55;95096.19;;;3.89;100.00
11049;BME280;5577;42.706;23.160;2022-12-29T06:19:40;95099.75;;;3.98;100.00
11049;BME280;5577;42.706;23.160;2022-12-29T06:22:24;95096.69;;;4.09;100.00
11049;BME280;5577;42.706;23.160;2022-12-29T06:25:08;95096.50;;;4.06;100.00
11049;BME280;5577;42.706;23.160;2022-12-29T06:27:52;95073.28;;;3.99;100.00
11049;BME280;5577;42.706;23.160;2022-12-29T06:30:36;95098.00;;;4.12;100.00
11049;BME280;5577;42.706;23.160;2022-12-29T06:33:20;95101.34;;;4.17;100.00
11049;BME280;5577;42.706;23.160;2022-12-29T06:36:05;95097.91;;;4.17;100.00
11049;BME280;5577;42.706;23.160;2022-12-29T06:38:49;95100.19;;;4.23;100.00
11049;BME280;5577;42.706;23.160;2022-12-29T06:41:36;95105.16;;;4.25;100.00
11049;BME280;5577;42.706;23.160;2022-12-29T06:44:21;95040.69;;;3.87;100.00
11049;BME280;5577;42.706;23.160;2022-12-29T06:47:05;95096.09;;;4.36;100.00
11049;BME280;5577;42.706;23.160;2022-12-29T06:49:49;95094.53;;;4.53;100.00
11049;BME280;5577;42.706;23.160;2022-12-29T06:52:34;95103.09;;;4.59;100.00
11049;BME280;5577;42.706;23.160;2022-12-29T06:55:17;95103.53;;;4.66;100.00
11049;BME280;5577;42.706;23.160;2022-12-29T06:58:01;95105.78;;;4.72;100.00
11049;BME280;5577;42.706;23.160;2022-12-29T07:00:45;95104.78;;;4.87;100.00
11049;BME280;5577;42.706;23.160;2022-12-29T07:03:30;95102.56;;;4.94;100.00
11049;BME280;5577;42.706;23.160;2022-12-29T07:06:14;95103.63;;;5.11;100.00
11049;BME280;5577;42.706;23.160;2022-12-29T07:08:57;95089.69;;;5.11;100.00
11049;BME280;5577;42.706;23.160;2022-12-29T07:11:42;95096.56;;;5.25;100.00
11049;BME280;5577;42.706;23.160;2022-12-29T07:14:26;95099.47;;;5.37;100.00
11049;BME280;5577;42.706;23.160;2022-12-29T07:17:10;95088.88;;;5.42;100.00
11049;BME280;5577;42.706;23.160;2022-12-29T07:19:54;95096.06;;;5.37;100.00
11049;BME280;5577;42.706;23.160;2022-12-29T07:22:38;95091.59;;;5.24;100.00
11049;BME280;5577;42.706;23.160;2022-12-29T07:25:22;95091.38;;;5.34;100.00
11049;BME280;5577;42.706;23.160;2022-12-29T07:28:06;95100.06;;;5.48;100.00
11049;BME280;5577;42.706;23.160;2022-12-29T07:30:50;95094.06;;;5.61;100.00
11049;BME280;5577;42.706;23.160;2022-12-29T07:33:34;95097.66;;;5.65;100.00
11049;BME280;5577;42.706;23.160;2022-12-29T07:36:18;95104.38;;;5.71;100.00
11049;BME280;5577;42.706;23.160;2022-12-29T07:39:02;95101.19;;;5.87;100.00
11049;BME280;5577;42.706;23.160;2022-12-29T07:41:46;95098.69;;;5.82;100.00
11049;BME280;5577;42.706;23.160;2022-12-29T07:44:30;95089.72;;;5.83;100.00
11049;BME280;5577;42.706;23.160;2022-12-29T07:47:14;95091.47;;;5.88;100.00
11049;BME280;5577;42.706;23.160;2022-12-29T07:49:58;95095.75;;;5.84;100.00
11049;BME280;5577;42.706;23.160;2022-12-29T07:52:42;95101.78;;;5.84;100.00
11049;BME280;5577;42.706;23.160;2022-12-29T07:55:26;95107.03;;;5.84;100.00
11049;BME280;5577;42.706;23.160;2022-12-29T07:58:10;95100.44;;;5.87;100.00
11049;BME280;5577;42.706;23.160;2022-12-29T08:00:55;95104.41;;;5.98;100.00
11049;BME280;5577;42.706;23.160;2022-12-29T08:03:39;95106.25;;;5.97;100.00
11049;BME280;5577;42.706;23.160;2022-12-29T08:06:25;95106.44;;;6.15;100.00
11049;BME280;5577;42.706;23.160;2022-12-29T08:09:08;95082.91;;;6.10;100.00
11049;BME280;5577;42.706;23.160;2022-12-29T08:11:53;95111.59;;;6.33;100.00
11049;BME280;5577;42.706;23.160;2022-12-29T08:14:37;95112.31;;;6.61;100.00
11049;BME280;5577;42.706;23.160;2022-12-29T08:17:21;95097.44;;;6.78;100.00
11049;BME280;5577;42.706;23.160;2022-12-29T08:20:06;95097.38;;;6.92;100.00
11049;BME280;5577;42.706;23.160;2022-12-29T08:22:50;95096.97;;;6.98;100.00
11049;BME280;5577;42.706;23.160;2022-12-29T08:25:35;95102.88;;;7.04;100.00
11049;BME280;5577;42.706;23.160;2022-12-29T08:28:19;95107.16;;;7.13;100.00
11049;BME280;5577;42.706;23.160;2022-12-29T08:31:03;95097.91;;;7.24;100.00
11049;BME280;5577;42.706;23.160;2022-12-29T08:33:47;95089.22;;;7.24;100.00
11049;BME280;5577;42.706;23.160;2022-12-29T08:36:31;95107.22;;;7.30;100.00
11049;BME280;5577;42.706;23.160;2022-12-29T08:39:15;95103.94;;;7.47;100.00
11049;BME280;5577;42.706;23.160;2022-12-29T08:41:59;95103.44;;;7.75;100.00
11049;BME280;5577;42.706;23.160;2022-12-29T08:44:44;95109.69;;;7.88;100.00
11049;BME280;5577;42.706;23.160;2022-12-29T08:47:27;95099.06;;;8.10;100.00
11049;BME280;5577;42.706;23.160;2022-12-29T08:50:11;95101.41;;;8.20;100.00
11049;BME280;5577;42.706;23.160;2022-12-29T08:52:55;95098.97;;;8.23;100.00
11049;BME280;5577;42.706;23.160;2022-12-29T08:55:39;95099.19;;;8.05;100.00
11049;BME280;5577;42.706;23.160;2022-12-29T08:58:24;95091.84;;;8.41;100.00
11049;BME280;5577;42.706;23.160;2022-12-29T09:01:09;95097.44;;;8.39;100.00
11049;BME280;5577;42.706;23.160;2022-12-29T09:03:54;95098.84;;;8.45;100.00
11049;BME280;5577;42.706;23.160;2022-12-29T09:06:38;95090.66;;;8.55;100.00
11049;BME280;5577;42.706;23.160;2022-12-29T09:09:22;95079.00;;;8.56;100.00
11049;BME280;5577;42.706;23.160;2022-12-29T09:12:06;95039.88;;;8.33;100.00
11049;BME280;5577;42.706;23.160;2022-12-29T09:14:50;95079.94;;;8.86;100.00
11049;BME280;5577;42.706;23.160;2022-12-29T09:17:34;95076.69;;;8.89;100.00
11049;BME280;5577;42.706;23.160;2022-12-29T09:20:24;95082.38;;;9.17;100.00
11049;BME280;5577;42.706;23.160;2022-12-29T09:23:09;95072.09;;;9.32;100.00
11049;BME280;5577;42.706;23.160;2022-12-29T09:25:53;95071.38;;;9.15;100.00
11049;BME280;5577;42.706;23.160;2022-12-29T09:28:37;95056.75;;;9.17;100.00
11049;BME280;5577;42.706;23.160;2022-12-29T09:31:21;95054.22;;;9.38;100.00
11049;BME280;5577;42.706;23.160;2022-12-29T09:34:05;95056.69;;;9.43;100.00
11049;BME280;5577;42.706;23.160;2022-12-29T09:36:49;95055.19;;;9.25;100.00
11049;BME280;5577;42.706;23.160;2022-12-29T09:39:33;95043.44;;;9.05;100.00
11049;BME280;5577;42.706;23.160;2022-12-29T09:42:29;95045.72;;;9.15;100.00
11049;BME280;5577;42.706;23.160;2022-12-29T09:45:21;95013.31;;;8.89;100.00
11049;BME280;5577;42.706;23.160;2022-12-29T09:48:24;95036.84;;;9.20;100.00
11049;BME280;5577;42.706;23.160;2022-12-29T09:51:19;95005.00;;;9.25;100.00
11049;BME280;5577;42.706;23.160;2022-12-29T09:54:41;95035.63;;;9.17;100.00
11049;BME280;5577;42.706;23.160;2022-12-29T09:57:52;95028.00;;;9.24;100.00
11049;BME280;5577;42.706;23.160;2022-12-29T10:00:52;95020.06;;;9.24;100.00
11049;BME280;5577;42.706;23.160;2022-12-29T10:03:47;95025.00;;;9.43;100.00
11049;BME280;5577;42.706;23.160;2022-12-29T10:07:04;95006.47;;;9.43;100.00
11049;BME280;5577;42.706;23.160;2022-12-29T10:22:24;95000.13;;;10.02;100.00
11049;BME280;5577;42.706;23.160;2022-12-29T10:25:16;95008.75;;;9.90;100.00
11049;BME280;5577;42.706;23.160;2022-12-29T10:28:05;95006.75;;;9.87;100.00
11049;BME280;5577;42.706;23.160;2022-12-29T10:30:54;94996.25;;;9.99;100.00
11049;BME280;5577;42.706;23.160;2022-12-29T10:33:41;94996.03;;;9.84;100.00
11049;BME280;5577;42.706;23.160;2022-12-29T10:36:39;94965.22;;;9.88;100.00
11049;BME280;5577;42.706;23.160;2022-12-29T10:39:38;94987.59;;;10.40;100.00
11049;BME280;5577;42.706;23.160;2022-12-29T10:42:40;94987.72;;;10.96;100.00
11049;BME280;5577;42.706;23.160;2022-12-29T10:45:30;94987.59;;;10.93;100.00
11049;BME280;5577;42.706;23.160;2022-12-29T10:48:35;94987.22;;;11.27;100.00
11049;BME280;5577;42.706;23.160;2022-12-29T10:51:41;94981.78;;;11.80;100.00
11049;BME280;5577;42.706;23.160;2022-12-29T10:54:31;94918.53;;;11.34;100.00
11049;BME280;5577;42.706;23.160;2022-12-29T10:57:26;94972.97;;;12.67;100.00
11049;BME280;5577;42.706;23.160;2022-12-29T11:03:24;94966.19;;;13.25;90.79
11049;BME280;5577;42.706;23.160;2022-12-29T11:06:12;94962.34;;;13.22;87.84
11049;BME280;5577;42.706;23.160;2022-12-29T11:09:15;94966.91;;;12.67;93.32
11049;BME280;5577;42.706;23.160;2022-12-29T11:12:00;94956.91;;;12.36;99.38
11049;BME280;5577;42.706;23.160;2022-12-29T11:14:43;94959.69;;;12.40;98.79
11049;BME280;5577;42.706;23.160;2022-12-29T11:17:28;94948.66;;;12.26;99.45
11049;BME280;5577;42.706;23.160;2022-12-29T11:29:14;94953.72;;;11.79;100.00
11049;BME280;5577;42.706;23.160;2022-12-29T11:32:11;94907.06;;;11.42;100.00
11049;BME280;5577;42.706;23.160;2022-12-29T11:34:56;94948.84;;;11.81;100.00
11049;BME280;5577;42.706;23.160;2022-12-29T11:37:44;94951.50;;;11.81;100.00
11049;BME280;5577;42.706;23.160;2022-12-29T11:40:28;94942.56;;;11.74;100.00
11049;BME280;5577;42.706;23.160;2022-12-29T11:43:34;94945.31;;;11.53;100.00
11049;BME280;5577;42.706;23.160;2022-12-29T11:46:28;94943.72;;;11.16;100.00
11049;BME280;5577;42.706;23.160;2022-12-29T11:49:20;94947.88;;;10.93;100.00
11049;BME280;5577;42.706;23.160;2022-12-29T11:52:06;94881.19;;;10.46;100.00
11049;BME280;5577;42.706;23.160;2022-12-29T11:54:51;94928.88;;;10.58;100.00
11049;BME280;5577;42.706;23.160;2022-12-29T11:57:37;94896.13;;;10.30;100.00
11049;BME280;5577;42.706;23.160;2022-12-29T12:00:25;94930.63;;;10.54;100.00
11049;BME280;5577;42.706;23.160;2022-12-29T12:03:20;94921.59;;;10.55;100.00
11049;BME280;5577;42.706;23.160;2022-12-29T12:06:11;94929.75;;;10.50;100.00
11049;BME280;5577;42.706;23.160;2022-12-29T12:09:02;94883.63;;;10.19;100.00
11049;BME280;5577;42.706;23.160;2022-12-29T12:11:52;94923.47;;;10.55;100.00
11049;BME280;5577;42.706;23.160;2022-12-29T12:14:43;94918.56;;;10.45;100.00
11049;BME280;5577;42.706;23.160;2022-12-29T12:17:51;94919.22;;;10.42;100.00
11049;BME280;5577;42.706;23.160;2022-12-29T12:20:58;94893.41;;;10.39;100.00
11049;BME280;5577;42.706;23.160;2022-12-29T12:26:49;94898.13;;;10.66;100.00
11049;BME280;5577;42.706;23.160;2022-12-29T12:29:59;94901.66;;;10.58;100.00
11049;BME280;5577;42.706;23.160;2022-12-29T13:00:38;94889.47;;;10.45;100.00
11049;BME280;5577;42.706;23.160;2022-12-29T13:03:50;94895.25;;;11.27;100.00
11049;BME280;5577;42.706;23.160;2022-12-29T13:12:53;94894.03;;;12.25;100.00
11049;BME280;5577;42.706;23.160;2022-12-29T13:22:33;94906.94;;;11.02;100.00
11049;BME280;5577;42.706;23.160;2022-12-29T13:25:30;94901.34;;;10.83;100.00
11049;BME280;5577;42.706;23.160;2022-12-29T13:28:26;94896.84;;;10.51;100.00
11049;BME280;5577;42.706;23.160;2022-12-29T13:31:15;94903.31;;;10.30;100.00
11049;BME280;5577;42.706;23.160;2022-12-29T13:37:18;94849.69;;;9.59;100.00
11049;BME280;5577;42.706;23.160;2022-12-29T13:40:12;94904.66;;;9.95;100.00
11049;BME280;5577;42.706;23.160;2022-12-29T13:42:59;94905.97;;;9.80;100.00
11049;BME280;5577;42.706;23.160;2022-12-29T13:45:45;94907.63;;;9.64;100.00
11049;BME280;5577;42.706;23.160;2022-12-29T13:49:06;94908.94;;;9.58;100.00
11049;BME280;5577;42.706;23.160;2022-12-29T13:51:58;94907.19;;;9.62;100.00
11049;BME280;5577;42.706;23.160;2022-12-29T14:01:28;94911.41;;;9.55;100.00
11049;BME280;5577;42.706;23.160;2022-12-29T14:04:24;94914.13;;;9.46;100.00
11049;BME280;5577;42.706;23.160;2022-12-29T14:07:16;94900.47;;;9.44;100.00
11049;BME280;5577;42.706;23.160;2022-12-29T14:10:01;94912.44;;;9.42;100.00
11049;BME280;5577;42.706;23.160;2022-12-29T14:12:45;94920.38;;;9.42;100.00
11049;BME280;5577;42.706;23.160;2022-12-29T14:15:32;94918.41;;;9.30;100.00
11049;BME280;5577;42.706;23.160;2022-12-29T14:18:18;94926.50;;;9.25;100.00
11049;BME280;5577;42.706;23.160;2022-12-29T14:21:21;94922.63;;;9.23;100.00
11049;BME280;5577;42.706;23.160;2022-12-29T14:24:50;94920.13;;;9.26;100.00
11049;BME280;5577;42.706;23.160;2022-12-29T14:27:44;94924.59;;;9.34;100.00
11049;BME280;5577;42.706;23.160;2022-12-29T14:36:56;94939.97;;;8.95;100.00
11049;BME280;5577;42.706;23.160;2022-12-29T14:39:42;94937.50;;;8.90;100.00
11049;BME280;5577;42.706;23.160;2022-12-29T14:42:29;94879.41;;;8.35;100.00
11049;BME280;5577;42.706;23.160;2022-12-29T14:47:58;94870.28;;;7.98;100.00
11049;BME280;5577;42.706;23.160;2022-12-29T14:50:43;94941.94;;;8.34;100.00
11049;BME280;5577;42.706;23.160;2022-12-29T14:56:29;94897.25;;;7.95;100.00
11049;BME280;5577;42.706;23.160;2022-12-29T14:59:16;94939.47;;;8.29;100.00
11049;BME280;5577;42.706;23.160;2022-12-29T15:02:16;94940.38;;;8.16;100.00
11049;BME280;5577;42.706;23.160;2022-12-29T15:05:02;94942.69;;;8.01;100.00
11049;BME280;5577;42.706;23.160;2022-12-29T15:07:46;94935.69;;;7.88;100.00
11049;BME280;5577;42.706;23.160;2022-12-29T15:10:39;94935.22;;;7.77;100.00
11049;BME280;5577;42.706;23.160;2022-12-29T15:13:34;94930.56;;;7.74;100.00
11049;BME280;5577;42.706;23.160;2022-12-29T15:16:32;94921.13;;;7.73;100.00
11049;BME280;5577;42.706;23.160;2022-12-29T15:19:24;94919.09;;;7.70;100.00
11049;BME280;5577;42.706;23.160;2022-12-29T15:22:09;94913.00;;;7.53;100.00
11049;BME280;5577;42.706;23.160;2022-12-29T15:24:54;94926.19;;;7.53;100.00
11049;BME280;5577;42.706;23.160;2022-12-29T15:27:39;94935.81;;;7.57;100.00
11049;BME280;5577;42.706;23.160;2022-12-29T15:30:24;94933.03;;;7.54;100.00
11049;BME280;5577;42.706;23.160;2022-12-29T15:33:18;94933.69;;;7.20;100.00
11049;BME280;5577;42.706;23.160;2022-12-29T15:36:05;94931.75;;;7.04;100.00
11049;BME280;5577;42.706;23.160;2022-12-29T15:38:53;94936.53;;;6.93;100.00
11049;BME280;5577;42.706;23.160;2022-12-29T15:41:47;94935.22;;;6.82;100.00
11049;BME280;5577;42.706;23.160;2022-12-29T15:44:44;94941.84;;;6.71;100.00
11049;BME280;5577;42.706;23.160;2022-12-29T15:47:29;94944.53;;;6.58;100.00
11049;BME280;5577;42.706;23.160;2022-12-29T15:53:12;94938.91;;;6.51;100.00
11049;BME280;5577;42.706;23.160;2022-12-29T15:56:01;94934.91;;;6.31;100.00
11049;BME280;5577;42.706;23.160;2022-12-29T15:58:51;94937.97;;;6.25;100.00
11049;BME280;5577;42.706;23.160;2022-12-29T16:01:36;94936.00;;;6.08;100.00
11049;BME280;5577;42.706;23.160;2022-12-29T16:04:22;94922.66;;;6.05;100.00
11049;BME280;5577;42.706;23.160;2022-12-29T16:07:25;94927.13;;;6.04;100.00
11049;BME280;5577;42.706;23.160;2022-12-29T16:10:36;94930.31;;;5.93;100.00
11049;BME280;5577;42.706;23.160;2022-12-29T16:13:34;94940.31;;;5.90;100.00
11049;BME280;5577;42.706;23.160;2022-12-29T16:16:29;94937.22;;;5.88;100.00
11049;BME280;5577;42.706;23.160;2022-12-29T16:19:28;94945.97;;;5.70;100.00
11049;BME280;5577;42.706;23.160;2022-12-29T16:22:24;94940.06;;;5.65;100.00
11049;BME280;5577;42.706;23.160;2022-12-29T16:25:19;94953.47;;;5.63;100.00
11049;BME280;5577;42.706;23.160;2022-12-29T16:28:18;94945.50;;;5.68;100.00
11049;BME280;5577;42.706;23.160;2022-12-29T16:31:06;94948.13;;;5.68;100.00
11049;BME280;5577;42.706;23.160;2022-12-29T16:33:55;94950.69;;;5.60;100.00
11049;BME280;5577;42.706;23.160;2022-12-29T16:36:51;94939.78;;;5.53;100.00
11049;BME280;5577;42.706;23.160;2022-12-29T16:39:37;94949.81;;;5.37;100.00
11049;BME280;5577;42.706;23.160;2022-12-29T16:50:50;94956.63;;;5.38;100.00
11049;BME280;5577;42.706;23.160;2022-12-29T16:53:36;94963.44;;;5.53;100.00
11049;BME280;5577;42.706;23.160;2022-12-29T16:56:23;94966.63;;;5.50;100.00
11049;BME280;5577;42.706;23.160;2022-12-29T17:02:14;94965.06;;;5.89;100.00
11049;BME280;5577;42.706;23.160;2022-12-29T17:04:59;94967.78;;;5.84;100.00
11049;BME280;5577;42.706;23.160;2022-12-29T17:07:44;94957.47;;;5.88;100.00
11049;BME280;5577;42.706;23.160;2022-12-29T17:10:28;94952.88;;;5.80;100.00
11049;BME280;5577;42.706;23.160;2022-12-29T17:13:48;94965.34;;;5.88;100.00